createdAt,value
2023-03-05T00:01:25.884Z,3.64
2023-03-05T00:06:29.292Z,3.67
2023-03-05T00:11:31.943Z,3.70
2023-03-05T00:16:34.141Z,3.69
2023-03-05T00:21:39.192Z,3.67
2023-03-05T00:26:41.052Z,3.68
2023-03-05T00:31:44.227Z,3.69
2023-03-05T00:36:51.752Z,3.71
2023-03-05T00:41:54.510Z,3.73
2023-03-05T00:46:56.063Z,3.72
2023-03-05T00:51:57.849Z,3.73
2023-03-05T00:56:59.841Z,3.74
2023-03-05T01:02:01.465Z,3.73
2023-03-05T01:07:04.990Z,3.73
2023-03-05T01:12:07.712Z,3.75
2023-03-05T01:17:09.321Z,3.70
2023-03-05T01:22:10.894Z,3.71
2023-03-05T01:27:12.473Z,3.71
2023-03-05T01:32:14.051Z,3.70
2023-03-05T01:37:15.694Z,3.73
2023-03-05T01:42:19.395Z,3.75
2023-03-05T01:47:20.975Z,3.78
2023-03-05T01:52:27.209Z,3.74
2023-03-05T01:57:38.264Z,3.73
2023-03-05T02:02:42.416Z,3.74
2023-03-05T02:07:45.163Z,3.73
2023-03-05T02:12:49.259Z,3.73
2023-03-05T02:17:50.825Z,3.71
2023-03-05T02:22:52.507Z,3.71
2023-03-05T02:28:20.395Z,3.73
2023-03-05T02:33:22.488Z,3.76
2023-03-05T02:38:24.301Z,3.76
2023-03-05T02:43:27.387Z,3.77
2023-03-05T02:48:29.110Z,3.76
2023-03-05T02:53:30.754Z,3.77
2023-03-05T02:58:32.424Z,3.72
2023-03-05T03:03:34.119Z,3.63
2023-03-05T03:08:35.728Z,3.60
2023-03-05T03:13:37.394Z,3.55
2023-03-05T03:18:39.201Z,3.51
2023-03-05T03:23:40.759Z,3.43
2023-03-05T03:28:42.382Z,3.40
2023-03-05T03:33:45.496Z,3.35
2023-03-05T03:38:47.065Z,3.32
2023-03-05T03:43:48.768Z,3.30
2023-03-05T03:48:51.579Z,3.28
2023-03-05T03:53:53.344Z,3.21
2023-03-05T03:58:55.046Z,3.21
2023-03-05T04:03:56.619Z,3.18
2023-03-05T04:08:58.544Z,3.16
2023-03-05T04:14:00.178Z,3.16
2023-03-05T04:19:01.729Z,3.16
2023-03-05T04:24:03.588Z,3.13
2023-03-05T04:29:05.190Z,3.10
2023-03-05T04:34:06.715Z,3.12
2023-03-05T04:39:08.249Z,3.13
2023-03-05T04:44:09.798Z,3.09
2023-03-05T04:49:11.352Z,3.08
2023-03-05T04:54:12.874Z,3.08
2023-03-05T04:59:16.843Z,3.06
2023-03-05T05:04:18.632Z,3.09
2023-03-05T05:09:20.203Z,3.08
2023-03-05T05:14:21.905Z,3.06
2023-03-05T05:19:23.460Z,3.02
2023-03-05T05:24:25.016Z,3.02
2023-03-05T05:29:26.725Z,3.02
2023-03-05T05:34:28.330Z,3.04
2023-03-05T05:39:29.886Z,3.02
2023-03-05T05:44:31.634Z,3.03
2023-03-05T05:49:35.612Z,3.05
2023-03-05T05:54:37.155Z,3.08
2023-03-05T05:59:39.624Z,3.10
2023-03-05T06:04:41.164Z,3.11
2023-03-05T06:09:42.720Z,3.15
2023-03-05T06:14:44.274Z,3.18
2023-03-05T06:19:46.126Z,3.18
2023-03-05T06:24:47.663Z,3.15
2023-03-05T06:29:52.563Z,3.16
2023-03-05T06:34:54.246Z,3.21
2023-03-05T06:39:55.793Z,3.24
2023-03-05T06:44:57.371Z,3.26
2023-03-05T06:49:58.925Z,3.32
2023-03-05T06:55:00.505Z,3.38
2023-03-05T07:00:02.240Z,3.41
2023-03-05T07:05:05.055Z,3.42
2023-03-05T07:10:10.115Z,3.50
2023-03-05T07:15:12.076Z,3.64
2023-03-05T07:20:14.469Z,3.77
2023-03-05T07:25:21.437Z,3.94
2023-03-05T07:30:23.186Z,4.02
2023-03-05T07:35:24.853Z,4.13
2023-03-05T07:40:26.506Z,4.22
2023-03-05T07:45:28.078Z,4.31
2023-03-05T07:50:29.661Z,4.44
2023-03-05T07:55:31.252Z,4.61
2023-03-05T08:00:32.815Z,4.73
2023-03-05T08:05:34.358Z,4.83
2023-03-05T08:10:37.159Z,4.94
2023-03-05T08:15:38.884Z,5.14
2023-03-05T08:20:40.465Z,5.24
2023-03-05T08:25:42.055Z,5.42
2023-03-05T08:30:43.664Z,5.54
2023-03-05T08:35:45.571Z,5.59
2023-03-05T08:40:48.134Z,5.65
2023-03-05T08:45:51.298Z,5.77
2023-03-05T08:50:54.556Z,5.88
2023-03-05T08:55:57.806Z,6.09
2023-03-05T09:00:59.345Z,6.23
2023-03-05T09:06:02.815Z,6.20
2023-03-05T09:11:06.549Z,6.30
2023-03-05T09:16:12.072Z,6.27
2023-03-05T09:21:16.465Z,6.20
2023-03-05T09:26:21.218Z,6.04
2023-03-05T09:31:23.317Z,6.00
2023-03-05T09:36:27.870Z,6.08
2023-03-05T09:41:51.275Z,6.07
2023-03-05T09:47:06.939Z,6.17
2023-03-05T09:52:20.753Z,6.29
2023-03-05T09:57:25.861Z,6.36
2023-03-05T10:02:35.378Z,6.27
2023-03-05T10:07:41.841Z,6.44
2023-03-05T10:12:45.754Z,6.59
2023-03-05T10:17:56.437Z,6.83
2023-03-05T10:23:19.945Z,7.04
2023-03-05T10:28:40.313Z,7.08
2023-03-05T10:34:22.540Z,7.18
2023-03-05T10:39:29.763Z,7.19
2023-03-05T10:44:34.321Z,7.34
2023-03-05T10:49:39.884Z,7.28
2023-03-05T10:54:42.917Z,7.19
2023-03-05T10:59:49.742Z,6.95
2023-03-05T11:04:51.826Z,6.74
2023-03-05T11:10:14.679Z,6.72
2023-03-05T11:15:16.410Z,6.83
2023-03-05T11:20:27.032Z,7.00
2023-03-05T11:25:28.626Z,7.25
2023-03-05T11:30:34.218Z,7.54
2023-03-05T11:35:39.998Z,7.73
2023-03-05T11:40:41.820Z,7.75
2023-03-05T11:45:45.822Z,7.77
2023-03-05T11:50:52.995Z,7.51
2023-03-05T11:56:01.618Z,7.28
2023-03-05T12:01:06.639Z,7.14
2023-03-05T12:06:20.728Z,7.13
2023-03-05T12:11:31.910Z,7.11
2023-03-05T12:16:41.977Z,7.12
2023-03-05T12:21:44.593Z,7.20
2023-03-05T12:27:04.663Z,7.21
2023-03-05T12:32:28.757Z,7.19
2023-03-05T12:37:31.159Z,7.28
2023-03-05T12:42:32.681Z,7.42
2023-03-05T12:47:34.221Z,7.39
2023-03-05T12:52:35.799Z,7.25
2023-03-05T12:57:37.441Z,6.95
2023-03-05T13:02:42.569Z,6.70
2023-03-05T13:07:49.662Z,6.53
2023-03-05T13:12:53.801Z,6.53
2023-03-05T13:18:03.554Z,6.35
2023-03-05T13:23:08.036Z,6.33
2023-03-05T13:28:17.215Z,6.31
2023-03-05T13:33:29.466Z,6.30
2023-03-05T13:38:36.294Z,6.38
2023-03-05T13:43:53.920Z,6.36
2023-03-05T13:48:56.701Z,6.35
2023-03-05T13:53:58.782Z,6.22
2023-03-05T13:59:01.150Z,6.24
2023-03-05T14:04:19.966Z,6.17
2023-03-05T14:09:27.859Z,6.09
2023-03-05T14:14:32.437Z,6.04
2023-03-05T14:19:39.247Z,5.91
2023-03-05T14:24:52.626Z,5.93
2023-03-05T14:29:54.300Z,5.91
2023-03-05T14:34:58.633Z,5.84
2023-03-05T14:40:05.515Z,5.82
2023-03-05T14:45:40.860Z,5.72
2023-03-05T14:50:46.874Z,5.61
2023-03-05T14:55:51.364Z,5.57
2023-03-05T15:00:55.295Z,5.54
2023-03-05T15:05:58.717Z,5.49
2023-03-05T15:11:01.084Z,5.46
2023-03-05T15:16:05.284Z,5.44
2023-03-05T15:21:06.855Z,5.44
2023-03-05T15:26:11.718Z,5.48
2023-03-05T15:31:15.837Z,5.52
2023-03-05T15:36:17.449Z,5.57
2023-03-05T15:41:19.128Z,5.60
2023-03-05T15:46:20.680Z,5.55
2023-03-05T15:51:22.596Z,5.57
2023-03-05T15:56:24.165Z,5.54
2023-03-05T16:01:25.851Z,5.50
2023-03-05T16:06:28.902Z,5.46
2023-03-05T16:11:33.530Z,5.39
2023-03-05T16:16:36.555Z,5.35
2023-03-05T16:21:38.238Z,5.27
2023-03-05T16:26:41.494Z,5.16
2023-03-05T16:31:45.239Z,5.11
2023-03-05T16:36:50.279Z,5.06
2023-03-05T16:41:52.633Z,5.03
2023-03-05T16:46:56.316Z,4.92
2023-03-05T16:51:59.427Z,4.85
2023-03-05T16:57:03.156Z,4.83
2023-03-05T17:02:05.593Z,4.77
2023-03-05T17:07:07.787Z,4.74
2023-03-05T17:12:09.336Z,4.66
2023-03-05T17:17:11.104Z,4.61
2023-03-05T17:22:12.954Z,4.59
2023-03-05T17:27:18.631Z,4.54
2023-03-05T17:32:20.207Z,4.48
2023-03-05T17:37:22.778Z,4.41
2023-03-05T17:42:24.320Z,4.43
2023-03-05T17:47:26.416Z,4.45
2023-03-05T17:52:28.057Z,4.43
2023-03-05T17:57:29.642Z,4.37
2023-03-05T18:02:33.429Z,4.35
2023-03-05T18:07:35.012Z,4.33
2023-03-05T18:12:36.824Z,4.35
2023-03-05T18:17:38.553Z,4.36
2023-03-05T18:22:40.115Z,4.28
2023-03-05T18:27:42.823Z,4.27
2023-03-05T18:32:47.506Z,4.24
2023-03-05T18:37:49.272Z,4.18
2023-03-05T18:42:53.236Z,4.20
2023-03-05T18:47:56.667Z,4.16
2023-03-05T18:52:58.246Z,4.14
2023-03-05T18:57:59.984Z,4.09
2023-03-05T19:03:03.443Z,4.11
2023-03-05T19:08:05.305Z,4.10
2023-03-05T19:13:28.032Z,4.02
2023-03-05T19:18:33.736Z,3.95
2023-03-05T19:23:35.601Z,3.86
2023-03-05T19:28:37.293Z,3.83
2023-03-05T19:33:38.855Z,3.76
2023-03-05T19:38:43.050Z,3.75
2023-03-05T19:43:44.592Z,3.75
2023-03-05T19:48:46.470Z,3.68
2023-03-05T19:53:48.279Z,3.68
2023-03-05T19:58:49.953Z,3.68
2023-03-05T20:03:53.954Z,3.66
2023-03-05T20:08:56.907Z,3.62
2023-03-05T20:13:58.535Z,3.61
2023-03-05T20:19:00.181Z,3.63
2023-03-05T20:24:05.038Z,3.62
2023-03-05T20:29:07.609Z,3.56
2023-03-05T20:34:12.735Z,3.48
2023-03-05T20:39:14.408Z,3.48
2023-03-05T20:44:16.525Z,3.45
2023-03-05T20:49:18.140Z,3.35
2023-03-05T20:54:20.198Z,3.37
2023-03-05T20:59:23.278Z,3.41
2023-03-05T21:04:24.847Z,3.36
2023-03-05T21:09:28.366Z,3.35
2023-03-05T21:14:31.389Z,3.33
2023-03-05T21:19:33.845Z,3.30
2023-03-05T21:24:50.486Z,3.26
2023-03-05T21:29:52.276Z,3.27
2023-03-05T21:34:54.043Z,3.26
2023-03-05T21:39:55.593Z,3.21
2023-03-05T21:44:57.130Z,3.21
2023-03-05T21:49:58.686Z,3.26
2023-03-05T21:55:00.686Z,3.20
2023-03-05T22:00:02.795Z,3.14
2023-03-05T22:05:15.539Z,3.08
2023-03-05T22:10:19.375Z,3.05
2023-03-05T22:15:21.240Z,3.00
2023-03-05T22:20:22.855Z,2.99
2023-03-05T22:25:24.363Z,2.97
2023-03-05T22:30:26.027Z,2.96
2023-03-05T22:35:28.321Z,2.96
2023-03-05T22:40:29.905Z,2.97
2023-03-05T22:45:31.551Z,2.95
2023-03-05T22:50:33.161Z,2.96
2023-03-05T22:55:34.724Z,2.92
2023-03-05T23:00:37.273Z,2.83
2023-03-05T23:05:39.207Z,2.83
2023-03-05T23:10:40.799Z,2.77
2023-03-05T23:15:42.404Z,2.72
2023-03-05T23:20:44.240Z,2.67
2023-03-05T23:25:46.150Z,2.72
2023-03-05T23:30:47.813Z,2.64
2023-03-05T23:35:55.734Z,2.55
2023-03-05T23:41:01.081Z,2.57
2023-03-05T23:46:02.869Z,2.57
2023-03-05T23:51:09.333Z,2.50
2023-03-05T23:56:12.016Z,2.50
